createdAt,value
2024-01-16T00:00:39.920Z,5.48
2024-01-16T00:03:06.481Z,5.48
2024-01-16T00:05:33.063Z,5.46
2024-01-16T00:08:01.317Z,5.46
2024-01-16T00:10:27.971Z,5.47
2024-01-16T00:12:54.538Z,5.46
2024-01-16T00:15:21.045Z,5.46
2024-01-16T00:17:47.716Z,5.46
2024-01-16T00:20:14.402Z,5.47
2024-01-16T00:22:40.921Z,5.47
2024-01-16T00:25:07.771Z,5.47
2024-01-16T00:27:34.329Z,5.47
2024-01-16T00:30:00.876Z,5.47
2024-01-16T00:32:27.490Z,5.46
2024-01-16T00:34:54.108Z,5.47
2024-01-16T00:37:21.117Z,5.48
2024-01-16T00:39:47.996Z,5.48
2024-01-16T00:42:14.484Z,5.48
2024-01-16T00:44:41.077Z,5.47
2024-01-16T00:47:07.746Z,5.49
2024-01-16T00:49:34.380Z,5.49
2024-01-16T00:52:00.887Z,5.51
2024-01-16T00:54:27.418Z,5.52
2024-01-16T00:56:56.701Z,5.53
2024-01-16T00:59:23.284Z,5.54
2024-01-16T01:01:49.817Z,5.51
2024-01-16T01:04:16.475Z,5.54
2024-01-16T01:06:42.986Z,5.56
2024-01-16T01:09:12.923Z,5.53
2024-01-16T01:11:39.956Z,5.56
2024-01-16T01:14:06.627Z,5.57
2024-01-16T01:16:33.255Z,5.59
2024-01-16T01:19:00.293Z,5.56
2024-01-16T01:21:26.945Z,5.56
2024-01-16T01:23:53.525Z,5.58
2024-01-16T01:26:20.684Z,5.58
2024-01-16T01:28:47.462Z,5.56
2024-01-16T01:31:14.277Z,5.60
2024-01-16T01:33:40.983Z,5.58
2024-01-16T01:36:07.653Z,5.58
2024-01-16T01:38:34.220Z,5.58
2024-01-16T01:41:00.745Z,5.57
2024-01-16T01:43:27.303Z,5.57
2024-01-16T01:46:09.554Z,5.55
2024-01-16T01:48:36.872Z,5.54
2024-01-16T01:51:04.190Z,5.55
2024-01-16T01:53:32.013Z,5.55
2024-01-16T01:55:58.728Z,5.55
2024-01-16T01:58:25.309Z,5.54
2024-01-16T02:00:52.169Z,5.55
2024-01-16T02:03:19.172Z,5.55
2024-01-16T02:05:46.010Z,5.52
2024-01-16T02:08:12.667Z,5.53
2024-01-16T02:10:40.762Z,5.52
2024-01-16T02:13:07.300Z,5.53
2024-01-16T02:15:33.885Z,5.52
2024-01-16T02:18:00.563Z,5.51
2024-01-16T02:20:27.330Z,5.49
2024-01-16T02:22:56.639Z,5.49
2024-01-16T02:25:23.184Z,5.48
2024-01-16T02:27:50.069Z,5.48
2024-01-16T02:30:16.738Z,5.48
2024-01-16T02:32:44.167Z,5.48
2024-01-16T02:35:11.373Z,5.47
2024-01-16T02:37:38.068Z,5.46
2024-01-16T02:40:07.489Z,5.47
2024-01-16T02:42:34.234Z,5.45
2024-01-16T02:45:00.748Z,5.45
2024-01-16T02:47:27.380Z,5.46
2024-01-16T02:49:54.062Z,5.47
2024-01-16T02:52:20.628Z,5.46
2024-01-16T02:54:47.310Z,5.45
2024-01-16T02:57:13.858Z,5.46
2024-01-16T02:59:40.380Z,5.46
2024-01-16T03:02:06.971Z,5.44
2024-01-16T03:04:33.702Z,5.44
2024-01-16T03:07:00.375Z,5.44
2024-01-16T03:09:26.888Z,5.44
2024-01-16T03:11:53.806Z,5.42
2024-01-16T03:14:20.462Z,5.42
2024-01-16T03:16:47.210Z,5.42
2024-01-16T03:19:14.208Z,5.42
2024-01-16T03:21:40.722Z,5.40
2024-01-16T03:24:07.248Z,5.40
2024-01-16T03:26:34.170Z,5.40
2024-01-16T03:29:01.537Z,5.39
2024-01-16T03:31:28.988Z,5.38
2024-01-16T03:33:55.689Z,5.36
2024-01-16T03:36:22.226Z,5.38
2024-01-16T03:38:48.819Z,5.38
2024-01-16T03:41:15.412Z,5.35
2024-01-16T03:43:42.198Z,5.35
2024-01-16T03:46:09.008Z,5.32
2024-01-16T03:48:35.613Z,5.34
2024-01-16T03:51:03.805Z,5.29
2024-01-16T03:53:30.469Z,5.33
2024-01-16T03:55:57.057Z,5.33
2024-01-16T03:58:24.339Z,5.30
2024-01-16T04:00:54.779Z,5.30
2024-01-16T04:03:21.405Z,5.27
2024-01-16T04:05:47.994Z,5.26
2024-01-16T04:08:14.630Z,5.25
2024-01-16T04:10:41.191Z,5.22
2024-01-16T04:13:07.675Z,5.22
2024-01-16T04:15:34.426Z,5.20
2024-01-16T04:18:01.496Z,5.19
2024-01-16T04:20:28.166Z,5.18
2024-01-16T04:22:54.703Z,5.17
2024-01-16T04:25:21.238Z,5.16
2024-01-16T04:27:47.752Z,5.14
2024-01-16T04:30:14.718Z,5.10
2024-01-16T04:32:41.664Z,5.13
2024-01-16T04:35:08.708Z,5.11
2024-01-16T04:37:35.305Z,5.11
2024-01-16T04:40:01.891Z,5.10
2024-01-16T04:42:28.472Z,5.09
2024-01-16T04:44:55.647Z,5.11
2024-01-16T04:47:22.337Z,5.10
2024-01-16T04:49:48.883Z,5.07
2024-01-16T04:52:15.415Z,5.06
2024-01-16T04:54:41.914Z,5.04
2024-01-16T04:57:08.431Z,5.05
2024-01-16T04:59:35.004Z,5.04
2024-01-16T05:02:02.225Z,5.03
2024-01-16T05:04:28.870Z,5.02
2024-01-16T05:06:56.302Z,5.01
2024-01-16T05:09:22.849Z,5.01
2024-01-16T05:11:49.742Z,4.99
2024-01-16T05:14:16.436Z,4.98
2024-01-16T05:16:42.936Z,4.98
2024-01-16T05:19:09.547Z,4.98
2024-01-16T05:21:36.187Z,4.99
2024-01-16T05:24:03.533Z,4.96
2024-01-16T05:26:30.153Z,4.97
2024-01-16T05:28:56.824Z,4.97
2024-01-16T05:31:23.479Z,4.97
2024-01-16T05:33:50.210Z,4.96
2024-01-16T05:36:16.960Z,4.93
2024-01-16T05:38:43.630Z,4.94
2024-01-16T05:41:10.241Z,4.94
2024-01-16T05:43:36.992Z,4.95
2024-01-16T05:46:03.504Z,4.95
2024-01-16T05:48:30.233Z,4.94
2024-01-16T05:50:56.922Z,4.92
2024-01-16T05:53:23.559Z,4.91
2024-01-16T05:55:50.157Z,4.91
2024-01-16T05:58:16.692Z,4.91
2024-01-16T06:00:43.321Z,4.90
2024-01-16T06:03:09.921Z,4.89
2024-01-16T06:05:36.494Z,4.90
2024-01-16T06:08:04.181Z,4.88
2024-01-16T06:10:30.761Z,4.88
2024-01-16T06:12:57.275Z,4.93
2024-01-16T06:15:24.672Z,5.00
2024-01-16T06:17:51.332Z,5.06
2024-01-16T06:20:17.910Z,5.13
2024-01-16T06:22:44.517Z,5.21
2024-01-16T06:25:11.078Z,5.29
2024-01-16T06:27:37.650Z,5.33
2024-01-16T06:30:05.350Z,5.34
2024-01-16T06:32:32.026Z,5.37
2024-01-16T06:34:58.580Z,5.42
2024-01-16T06:37:25.072Z,5.50
2024-01-16T06:39:51.570Z,5.61
2024-01-16T06:42:18.087Z,5.69
2024-01-16T06:44:44.572Z,5.81
2024-01-16T06:47:11.173Z,5.93
2024-01-16T06:49:38.190Z,6.05
2024-01-16T06:52:04.830Z,6.21
2024-01-16T06:54:31.342Z,6.31
2024-01-16T06:56:57.857Z,6.40
2024-01-16T06:59:24.658Z,6.41
2024-01-16T07:01:51.283Z,6.40
2024-01-16T07:04:17.978Z,6.35
2024-01-16T07:06:44.796Z,6.27
2024-01-16T07:09:14.105Z,6.21
2024-01-16T07:11:44.139Z,6.10
2024-01-16T07:14:11.323Z,6.04
2024-01-16T07:16:37.950Z,5.96
2024-01-16T07:19:04.585Z,5.89
2024-01-16T07:21:31.208Z,5.81
2024-01-16T07:23:57.920Z,5.73
2024-01-16T07:26:24.921Z,5.69
2024-01-16T07:28:51.460Z,5.65
2024-01-16T07:31:18.053Z,5.57
2024-01-16T07:33:44.789Z,5.55
2024-01-16T07:36:13.289Z,5.51
2024-01-16T07:38:39.882Z,5.47
2024-01-16T07:41:06.965Z,5.45
2024-01-16T07:43:33.919Z,5.42
2024-01-16T07:46:00.628Z,5.40
2024-01-16T07:48:27.337Z,5.35
2024-01-16T07:50:54.068Z,5.35
2024-01-16T07:53:22.933Z,5.36
2024-01-16T07:55:49.479Z,5.34
2024-01-16T07:58:15.973Z,5.35
2024-01-16T08:00:42.554Z,5.35
2024-01-16T08:03:12.038Z,5.34
2024-01-16T08:05:39.252Z,5.34
2024-01-16T08:08:06.195Z,5.34
2024-01-16T08:10:32.768Z,5.33
2024-01-16T08:12:59.273Z,5.35
2024-01-16T08:15:25.939Z,5.31
2024-01-16T08:17:53.171Z,5.34
2024-01-16T08:20:19.836Z,5.35
2024-01-16T08:22:46.367Z,5.34
2024-01-16T08:25:12.916Z,5.32
2024-01-16T08:27:39.587Z,5.34
2024-01-16T08:30:07.078Z,5.34
2024-01-16T08:32:33.691Z,5.32
2024-01-16T08:35:00.335Z,5.34
2024-01-16T08:37:26.905Z,5.34
2024-01-16T08:39:53.643Z,5.33
2024-01-16T08:42:20.184Z,5.33
2024-01-16T08:44:46.676Z,5.34
2024-01-16T08:47:13.295Z,5.32
2024-01-16T08:49:39.962Z,5.32
2024-01-16T08:52:07.046Z,5.34
2024-01-16T08:54:33.589Z,5.32
2024-01-16T08:57:00.191Z,5.35
2024-01-16T08:59:27.074Z,5.35
2024-01-16T09:01:53.582Z,5.31
2024-01-16T09:04:20.189Z,5.37
2024-01-16T09:06:47.577Z,5.39
2024-01-16T09:09:14.220Z,5.39
2024-01-16T09:11:40.790Z,5.37
2024-01-16T09:14:07.390Z,5.41
2024-01-16T09:16:33.971Z,5.40
2024-01-16T09:19:00.665Z,5.42
2024-01-16T09:21:27.374Z,5.43
2024-01-16T09:23:54.276Z,5.41
2024-01-16T09:26:22.161Z,5.44
2024-01-16T09:28:48.809Z,5.39
2024-01-16T09:31:16.460Z,5.43
2024-01-16T09:33:44.746Z,5.45
2024-01-16T09:36:11.585Z,5.45
2024-01-16T09:38:38.204Z,5.47
2024-01-16T09:41:05.018Z,5.48
2024-01-16T09:43:32.899Z,5.50
2024-01-16T09:46:03.258Z,5.51
2024-01-16T09:48:31.462Z,5.55
2024-01-16T09:50:58.413Z,5.55
2024-01-16T09:53:25.171Z,5.58
2024-01-16T09:55:55.263Z,5.61
2024-01-16T09:58:25.598Z,5.64
2024-01-16T10:00:52.735Z,5.71
2024-01-16T10:03:20.329Z,5.75
2024-01-16T10:05:48.416Z,5.81
2024-01-16T10:08:15.014Z,5.89
2024-01-16T10:10:47.839Z,5.92
2024-01-16T10:13:18.007Z,5.98
2024-01-16T10:15:44.619Z,6.02
2024-01-16T10:18:25.933Z,6.07
2024-01-16T10:20:54.505Z,6.10
2024-01-16T10:23:30.804Z,6.14
2024-01-16T10:26:11.011Z,6.20
2024-01-16T10:28:38.884Z,6.26
2024-01-16T10:31:06.467Z,6.29
2024-01-16T10:33:36.217Z,6.35
2024-01-16T10:36:11.812Z,6.37
2024-01-16T10:38:39.897Z,6.43
2024-01-16T10:41:16.552Z,6.45
2024-01-16T10:43:43.497Z,6.46
2024-01-16T10:46:10.251Z,6.49
2024-01-16T10:48:37.254Z,6.52
2024-01-16T10:51:03.986Z,6.54
2024-01-16T10:53:33.646Z,6.53
2024-01-16T10:56:01.266Z,6.54
2024-01-16T10:58:29.342Z,6.54
2024-01-16T11:00:57.983Z,6.52
2024-01-16T11:03:39.594Z,6.53
2024-01-16T11:06:09.627Z,6.45
2024-01-16T11:08:37.965Z,6.48
2024-01-16T11:11:05.962Z,6.49
2024-01-16T11:13:33.950Z,6.47
2024-01-16T11:16:00.614Z,6.47
2024-01-16T11:18:28.601Z,6.47
2024-01-16T11:21:05.854Z,6.47
2024-01-16T11:23:36.412Z,6.45
2024-01-16T11:26:24.373Z,6.41
2024-01-16T11:28:51.107Z,6.39
2024-01-16T11:31:28.736Z,6.35
2024-01-16T11:33:55.456Z,6.37
